GMMNGMTT

Guest
Details From GMMN - Casablanca Mohammed V Intl
To GMTT - Ibn Batouta
Flight Number -
Tags Generated
Created
Modified
Stats Distance 163 nm / 302 km
Max Altitude 0 ft / 0 m
Waypoints 2
Social Downloads 7
Likes 0
Share VATSIM

Download

Looking for another format? Having issues loading an existing format? Contact us
Advertisement - Login to hide

Notes

Generated

Route

GMMN GMTT

ID Type Via Altitude Latitude Longitude Leg Dist Tot Dist Heading (true) Name
O GMMN APT - 0 ft / 0 m 33.38306˚ -7.59743˚ - 0 nm - -
O GMTT APT - 0 ft / 0 m 35.71911˚ -5.92312˚ 162 nm 162 nm 30° / 31° -

Altitude Profile

Advertisement - Login to hide

Weather


0- 5 10 15 20 25 30 35+ Temperature / ° C

Clouds and Precipitation
Forecast for 2017-12-13 00:00 UTC. Updated 2 hours ago

Ground ~20,000 ft ~40,000 ft Winds

GMMN

Details ICAO GMMN (CMN)
Name Casablanca Mohammed V Intl
Region Morocco
Timezone Africa/Casablanca (UTC+0.0)
Stats Elevation 656 ft / 200 m (AMSL)
Location 33.367466° -7.589964°
Runways 2
Magnetic Variation 1.817° W

METAR

GMMN 122300Z 07003KT 050V120 CAVOK 08/06 Q1023 NOSIG

Decode

TAF

TAF GMMN 121700Z 1218/1324 02010KT 9999 BKN016 TEMPO 1304/1308 5000 BECMG 1309/1312 36010KT

Decode

Departure Runways

ID Width Length Bearing (true) Bearing (mag) Surface Threshold Offset Overrun Length
17L 148 ft / 45 m 12,224 ft / 3,726 m 164.03° 165.85° Asphalt 0 ft / 0 m 295 ft / 90 m
17R 148 ft / 45 m 12,196 ft / 3,717 m 164.03° 165.85° Asphalt 0 ft / 0 m 197 ft / 60 m
35L 148 ft / 45 m 12,196 ft / 3,717 m 344.04° 345.86° Asphalt 0 ft / 0 m 180 ft / 55 m
35R 148 ft / 45 m 12,224 ft / 3,726 m 344.04° 345.86° Asphalt 0 ft / 0 m 995 ft / 303 m

GMTT

Details ICAO GMTT (TNG)
Name IBN BATOUTA
Region Morocco
Timezone Africa/Casablanca (UTC+0.0)
Stats Elevation 62 ft / 19 m (AMSL)
Location 35.726911° -5.916900°
Runways 2
Magnetic Variation 1.290° W

METAR

GMTT 122300Z VRB02KT 6000 FEW013 07/04 Q1024 NOSIG

Decode

TAF

TAF GMTT 121100Z 1212/1318 34010KT 9999 SCT016 BECMG 1218/1221 10008KT PROB30 TEMPO 1300/1307 2000 BR FEW005 BKN010

Decode

Destination Runways

ID Width Length Bearing (true) Bearing (mag) Surface Threshold Offset Overrun Length
07 98 ft / 30 m 6,555 ft / 1,998 m 69.91° 71.20° Asphalt 0 ft / 0 m 0 ft / 0 m
10 148 ft / 45 m 11,465 ft / 3,495 m 96.01° 97.30° Asphalt 0 ft / 0 m 197 ft / 60 m
25 98 ft / 30 m 6,555 ft / 1,998 m 249.92° 251.21° Asphalt 0 ft / 0 m 0 ft / 0 m
28 148 ft / 45 m 11,465 ft / 3,495 m 276.03° 277.32° Asphalt 1,640 ft / 500 m 197 ft / 60 m

Approach Navaids

Runway Type Ident Frequency Range Bearing (true) Bearing (mag) Slope Elevation
28 Localiser TAG 109.30 MHz 18 nm / 33 km 276.22° 277.51° - 62 ft / 19 m (AMSL)
28 Glidescope TAG 109.30 MHz 10 nm / 19 km 276.02° 277.31° 2.99° 52 ft / 16 m (AMSL)

Popular Alternatives